createdAt,value
2018-07-06T00:02:33.530Z,99.90
2018-07-06T00:05:19.379Z,99.90
2018-07-06T00:08:05.242Z,99.90
2018-07-06T00:10:51.122Z,99.90
2018-07-06T00:16:17.225Z,99.90
2018-07-06T00:19:03.159Z,99.90
2018-07-06T00:21:49.052Z,99.90
2018-07-06T00:27:15.134Z,99.20
2018-07-06T00:30:00.981Z,99.70
2018-07-06T00:32:46.771Z,99.80
2018-07-06T00:35:32.800Z,99.90
2018-07-06T00:38:18.648Z,99.90
2018-07-06T00:41:04.642Z,99.90
2018-07-06T00:43:50.688Z,99.80
2018-07-06T00:46:36.723Z,99.90
2018-07-06T00:49:22.714Z,99.90
2018-07-06T00:52:08.483Z,99.90
2018-07-06T00:57:38.952Z,99.80
2018-07-06T01:00:26.219Z,99.40
2018-07-06T01:03:11.963Z,98.90
2018-07-06T01:05:57.968Z,98.70
2018-07-06T01:08:43.953Z,98.80
2018-07-06T01:11:29.835Z,99.50
2018-07-06T01:14:15.710Z,99.60
2018-07-06T01:17:01.612Z,99.90
2018-07-06T01:22:27.652Z,99.90
2018-07-06T01:25:13.631Z,99.80
2018-07-06T01:27:59.634Z,99.90
2018-07-06T01:33:25.491Z,99.30
2018-07-06T01:36:11.451Z,98.20
2018-07-06T01:38:57.379Z,98.20
2018-07-06T01:41:43.339Z,99.20
2018-07-06T01:47:09.223Z,99.90
2018-07-06T01:49:55.143Z,98.90
2018-07-06T01:52:41.051Z,98.80
2018-07-06T01:55:27.295Z,99.40
2018-07-06T01:58:13.034Z,99.50
2018-07-06T02:00:59.046Z,99.40
2018-07-06T02:03:45.049Z,99.50
2018-07-06T02:06:31.004Z,99.70
2018-07-06T02:09:16.855Z,99.90
2018-07-06T02:12:02.936Z,99.90
2018-07-06T02:14:48.799Z,98.60
2018-07-06T02:20:14.832Z,97.20
2018-07-06T02:23:00.596Z,97.50
2018-07-06T02:25:46.354Z,98.50
2018-07-06T02:28:32.244Z,98.70
2018-07-06T02:31:18.230Z,98.00
2018-07-06T02:34:04.012Z,98.40
2018-07-06T02:36:49.889Z,97.40
2018-07-06T02:39:35.839Z,98.50
2018-07-06T02:45:01.599Z,99.30
2018-07-06T02:47:47.471Z,99.50
2018-07-06T02:50:33.455Z,99.70
2018-07-06T02:53:19.335Z,99.70
2018-07-06T02:56:05.347Z,99.90
2018-07-06T02:58:51.175Z,99.90
2018-07-06T03:01:37.163Z,99.90
2018-07-06T03:04:23.143Z,99.90
2018-07-06T03:09:49.164Z,99.90
2018-07-06T03:15:15.210Z,99.90
2018-07-06T03:18:01.139Z,99.90
2018-07-06T03:20:47.091Z,99.90
2018-07-06T03:23:33.003Z,99.90
2018-07-06T03:26:18.831Z,99.90
2018-07-06T03:29:04.652Z,99.90
2018-07-06T03:31:50.354Z,99.90
2018-07-06T03:34:36.333Z,99.90
2018-07-06T03:37:22.159Z,99.90
2018-07-06T03:40:08.122Z,99.90
2018-07-06T03:42:53.987Z,99.90
2018-07-06T03:45:39.995Z,99.90
2018-07-06T03:48:27.560Z,99.90
2018-07-06T03:51:13.557Z,99.90
2018-07-06T03:53:59.415Z,99.90
2018-07-06T03:56:45.484Z,99.90
2018-07-06T03:59:31.339Z,99.90
2018-07-06T04:02:17.103Z,99.90
2018-07-06T04:05:03.084Z,99.90
2018-07-06T04:07:49.148Z,99.90
2018-07-06T04:13:15.075Z,99.90
2018-07-06T04:16:01.059Z,99.90
2018-07-06T04:18:46.894Z,99.90
2018-07-06T04:21:33.007Z,99.90
2018-07-06T04:24:18.947Z,99.90
2018-07-06T04:27:04.847Z,99.90
2018-07-06T04:29:50.943Z,99.90
2018-07-06T04:32:36.793Z,99.90
2018-07-06T04:35:22.855Z,99.90
2018-07-06T04:38:08.819Z,99.90
2018-07-06T04:40:54.875Z,99.90
2018-07-06T04:43:41.007Z,99.90
2018-07-06T04:46:27.389Z,99.90
2018-07-06T04:51:53.585Z,99.90
2018-07-06T04:54:39.807Z,99.90
2018-07-06T04:57:25.955Z,99.90
2018-07-06T05:00:12.075Z,99.90
2018-07-06T05:02:57.910Z,99.90
2018-07-06T05:05:43.771Z,99.90
2018-07-06T05:08:29.703Z,99.90
2018-07-06T05:13:55.636Z,99.90
2018-07-06T05:19:21.478Z,99.90
2018-07-06T05:22:07.359Z,99.90
2018-07-06T05:24:53.263Z,99.90
2018-07-06T05:30:19.532Z,99.90
2018-07-06T05:33:05.487Z,99.90
2018-07-06T05:38:31.541Z,99.90
2018-07-06T05:43:57.618Z,99.90
2018-07-06T05:46:43.425Z,99.90
2018-07-06T05:49:29.455Z,99.90
2018-07-06T05:52:15.234Z,99.90
2018-07-06T05:55:01.115Z,99.90
2018-07-06T05:57:47.226Z,99.90
2018-07-06T06:03:13.095Z,99.90
2018-07-06T06:05:58.858Z,99.90
2018-07-06T06:08:25.996Z,99.90
2018-07-06T06:10:54.835Z,99.90
2018-07-06T06:15:52.356Z,99.90
2018-07-06T06:18:21.261Z,99.90
2018-07-06T06:23:19.113Z,99.90
2018-07-06T06:25:47.969Z,99.90
2018-07-06T06:28:16.830Z,99.90
2018-07-06T06:30:45.781Z,99.90
2018-07-06T06:33:14.744Z,99.90
2018-07-06T06:35:43.600Z,99.90
2018-07-06T06:38:12.459Z,99.90
2018-07-06T06:40:41.386Z,99.90
2018-07-06T06:45:39.015Z,99.90
2018-07-06T06:48:07.911Z,99.90
2018-07-06T06:50:36.854Z,99.90
2018-07-06T06:55:34.612Z,99.90
2018-07-06T06:58:03.775Z,99.90
2018-07-06T07:00:32.819Z,99.90
2018-07-06T07:05:30.547Z,99.90
2018-07-06T07:07:59.431Z,99.90
2018-07-06T07:10:28.368Z,99.90
2018-07-06T07:12:57.227Z,99.90
2018-07-06T07:15:26.066Z,99.90
2018-07-06T07:20:23.724Z,99.90
2018-07-06T07:25:21.428Z,99.90
2018-07-06T07:30:19.073Z,99.90
2018-07-06T07:32:48.067Z,99.90
2018-07-06T07:35:16.971Z,99.90
2018-07-06T07:40:14.643Z,99.90
2018-07-06T07:42:43.776Z,99.90
2018-07-06T07:45:12.615Z,99.90
2018-07-06T07:47:41.500Z,99.90
2018-07-06T07:50:10.322Z,99.90
2018-07-06T07:55:19.423Z,99.90
2018-07-06T07:57:48.359Z,99.90
2018-07-06T08:02:45.995Z,99.90
2018-07-06T08:05:14.923Z,99.90
2018-07-06T08:07:43.879Z,99.90
2018-07-06T08:10:12.768Z,99.90
2018-07-06T08:12:41.745Z,99.90
2018-07-06T08:15:10.661Z,99.90
2018-07-06T08:17:39.546Z,99.90
2018-07-06T08:20:09.834Z,99.90
2018-07-06T08:22:39.275Z,99.90
2018-07-06T08:25:08.795Z,99.90
2018-07-06T08:27:37.666Z,99.90
2018-07-06T08:30:06.839Z,99.90
2018-07-06T08:32:35.908Z,99.90
2018-07-06T08:37:59.236Z,99.90
2018-07-06T08:40:28.315Z,99.90
2018-07-06T08:42:58.262Z,99.90
2018-07-06T08:45:27.632Z,99.90
2018-07-06T08:47:56.576Z,99.90
2018-07-06T08:50:25.536Z,99.90
2018-07-06T08:55:24.340Z,99.90
2018-07-06T08:57:54.556Z,99.90
2018-07-06T09:00:23.392Z,99.90
2018-07-06T09:02:52.455Z,99.90
2018-07-06T09:05:21.379Z,99.90
2018-07-06T09:07:50.243Z,99.90
2018-07-06T09:10:19.091Z,99.90
2018-07-06T09:12:47.987Z,99.90
2018-07-06T09:15:16.854Z,99.90
2018-07-06T09:17:45.695Z,99.90
2018-07-06T09:20:14.705Z,99.90
2018-07-06T09:22:43.507Z,99.90
2018-07-06T09:25:12.307Z,99.90
2018-07-06T09:27:41.155Z,99.90
2018-07-06T09:30:10.032Z,99.90
2018-07-06T09:32:38.884Z,99.90
2018-07-06T09:35:07.723Z,99.90
2018-07-06T09:37:36.582Z,99.90
2018-07-06T09:40:05.494Z,99.90
2018-07-06T09:42:34.487Z,99.90
2018-07-06T09:45:03.523Z,99.90
2018-07-06T09:47:32.196Z,99.90
2018-07-06T09:50:01.048Z,99.90
2018-07-06T09:52:29.887Z,99.90
2018-07-06T09:57:27.547Z,99.90
2018-07-06T09:59:56.375Z,99.90
2018-07-06T10:02:25.247Z,99.90
2018-07-06T10:07:22.814Z,99.90
2018-07-06T10:09:51.699Z,99.90
2018-07-06T10:12:20.495Z,99.90
2018-07-06T10:14:49.388Z,99.90
2018-07-06T10:17:18.212Z,99.90
2018-07-06T10:19:47.147Z,99.90
2018-07-06T10:22:15.983Z,99.90
2018-07-06T10:24:44.843Z,99.90
2018-07-06T10:27:13.672Z,99.90
2018-07-06T10:32:33.775Z,99.90
2018-07-06T10:35:02.816Z,99.90
2018-07-06T10:37:38.706Z,99.90
2018-07-06T10:40:07.674Z,99.90
2018-07-06T10:42:36.509Z,99.90
2018-07-06T10:45:05.695Z,99.90
2018-07-06T10:47:34.541Z,99.90
2018-07-06T10:50:03.433Z,99.90
2018-07-06T10:52:32.302Z,99.90
2018-07-06T10:55:01.091Z,99.90
2018-07-06T10:57:29.956Z,99.90
2018-07-06T10:59:58.838Z,99.90
2018-07-06T11:02:27.770Z,99.90
2018-07-06T11:04:57.745Z,99.90
2018-07-06T11:07:26.960Z,99.90
2018-07-06T11:09:55.832Z,99.90
2018-07-06T11:12:24.715Z,99.90
2018-07-06T11:14:53.547Z,99.90
2018-07-06T11:17:22.431Z,99.90
2018-07-06T11:19:51.259Z,99.90
2018-07-06T11:22:20.207Z,99.90
2018-07-06T11:24:49.200Z,99.90
2018-07-06T11:27:18.143Z,99.90
2018-07-06T11:29:47.015Z,99.90
2018-07-06T11:32:15.997Z,99.90
2018-07-06T11:34:45.135Z,99.90
2018-07-06T11:37:14.112Z,99.90
2018-07-06T11:42:11.779Z,99.90
2018-07-06T11:44:40.607Z,99.90
2018-07-06T11:49:38.167Z,99.90
2018-07-06T11:52:07.036Z,99.90
2018-07-06T11:54:35.899Z,99.90
2018-07-06T11:57:04.756Z,99.90
2018-07-06T11:59:33.666Z,99.90
2018-07-06T12:02:02.515Z,99.90
2018-07-06T12:07:00.137Z,99.90
2018-07-06T12:09:29.055Z,99.90
2018-07-06T12:11:57.902Z,99.90
2018-07-06T12:14:26.747Z,99.90
2018-07-06T12:16:55.615Z,99.90
2018-07-06T12:19:24.475Z,99.90
2018-07-06T12:21:53.291Z,99.90
2018-07-06T12:24:22.135Z,99.90
2018-07-06T12:26:50.975Z,99.90
2018-07-06T12:29:20.272Z,99.90
2018-07-06T12:31:49.383Z,99.90
2018-07-06T12:34:18.328Z,99.90
2018-07-06T12:36:47.294Z,99.90
2018-07-06T12:39:16.132Z,99.90
2018-07-06T12:41:45.029Z,99.90
2018-07-06T12:44:14.482Z,99.90
2018-07-06T12:49:12.094Z,99.90
2018-07-06T12:51:40.912Z,99.90
2018-07-06T12:54:09.744Z,99.90
2018-07-06T12:56:38.622Z,99.90
2018-07-06T13:01:36.238Z,99.90
2018-07-06T13:04:05.211Z,99.90
2018-07-06T13:06:34.056Z,99.90
2018-07-06T13:09:03.827Z,99.90
2018-07-06T13:14:01.423Z,99.90
2018-07-06T13:16:30.308Z,99.90
2018-07-06T13:18:59.175Z,99.90
2018-07-06T13:21:28.009Z,99.90
2018-07-06T13:23:56.885Z,99.90
2018-07-06T13:26:25.811Z,99.90
2018-07-06T13:28:54.666Z,99.90
2018-07-06T13:31:23.563Z,99.90
2018-07-06T13:33:52.413Z,99.90
2018-07-06T13:36:21.253Z,99.90
2018-07-06T13:38:50.128Z,99.90
2018-07-06T13:41:19.002Z,99.90
2018-07-06T13:43:47.856Z,99.90
2018-07-06T13:51:14.140Z,99.90
2018-07-06T13:53:42.955Z,99.90
2018-07-06T13:56:11.891Z,99.90
2018-07-06T13:58:40.744Z,99.90
2018-07-06T14:01:09.679Z,99.90
2018-07-06T14:03:38.548Z,99.80
2018-07-06T14:06:07.411Z,99.90
2018-07-06T14:08:36.233Z,99.80
2018-07-06T14:11:05.212Z,99.30
2018-07-06T14:13:34.072Z,99.50
2018-07-06T14:16:02.998Z,99.10
2018-07-06T14:18:31.859Z,98.50
2018-07-06T14:21:00.695Z,98.70
2018-07-06T14:23:29.563Z,98.50
2018-07-06T14:25:58.428Z,98.30
2018-07-06T14:28:27.351Z,98.20
2018-07-06T14:30:56.256Z,98.00
2018-07-06T14:33:25.087Z,98.80
2018-07-06T14:35:54.112Z,98.10
2018-07-06T14:38:22.947Z,97.70
2018-07-06T14:40:51.811Z,97.40
2018-07-06T14:43:20.671Z,97.40
2018-07-06T14:45:49.515Z,97.20
2018-07-06T14:48:18.338Z,96.20
2018-07-06T14:50:47.222Z,97.00
2018-07-06T14:53:16.136Z,95.70
2018-07-06T14:55:45.033Z,94.80
2018-07-06T14:58:14.388Z,94.00
2018-07-06T15:00:43.327Z,95.20
2018-07-06T15:03:12.180Z,94.10
2018-07-06T15:05:41.072Z,93.60
2018-07-06T15:08:09.955Z,94.40
2018-07-06T15:10:38.821Z,94.40
2018-07-06T15:13:07.632Z,94.10
2018-07-06T15:15:36.469Z,94.30
2018-07-06T15:18:05.588Z,94.20
2018-07-06T15:23:03.227Z,94.00
2018-07-06T15:25:32.652Z,94.30
2018-07-06T15:28:01.765Z,95.70
2018-07-06T15:30:31.640Z,94.90
2018-07-06T15:33:00.532Z,95.40
2018-07-06T15:35:29.434Z,95.60
2018-07-06T15:37:59.553Z,95.00
2018-07-06T15:40:28.453Z,95.30
2018-07-06T15:42:57.309Z,95.60
2018-07-06T15:45:26.608Z,94.70
2018-07-06T15:47:55.771Z,94.70
2018-07-06T15:50:24.884Z,95.10
2018-07-06T15:52:54.072Z,94.80
2018-07-06T15:55:23.255Z,95.00
2018-07-06T15:57:52.359Z,95.10
2018-07-06T16:00:21.299Z,95.40
2018-07-06T16:02:50.195Z,94.80
2018-07-06T16:05:19.060Z,95.50
2018-07-06T16:07:47.935Z,95.40
2018-07-06T16:10:16.794Z,95.00
2018-07-06T16:12:45.675Z,94.80
2018-07-06T16:15:14.566Z,94.90
2018-07-06T16:17:43.406Z,95.20
2018-07-06T16:20:12.270Z,95.10
2018-07-06T16:22:41.504Z,94.30
2018-07-06T16:25:10.381Z,95.10
2018-07-06T16:27:39.269Z,95.10
2018-07-06T16:30:08.203Z,94.30
2018-07-06T16:32:37.048Z,94.70
2018-07-06T16:35:06.100Z,95.70
2018-07-06T16:37:34.981Z,96.00
2018-07-06T16:40:03.916Z,95.00
2018-07-06T16:42:32.858Z,94.30
2018-07-06T16:45:01.754Z,94.20
2018-07-06T16:49:59.403Z,93.70
2018-07-06T16:52:28.234Z,93.30
2018-07-06T16:54:57.247Z,93.70
2018-07-06T16:57:26.151Z,93.50
2018-07-06T16:59:55.007Z,93.70
2018-07-06T17:02:23.862Z,93.10
2018-07-06T17:04:52.743Z,92.70
2018-07-06T17:07:21.606Z,93.70
2018-07-06T17:09:50.457Z,92.80
2018-07-06T17:12:19.331Z,92.70
2018-07-06T17:14:48.203Z,93.20
2018-07-06T17:17:17.108Z,92.70
2018-07-06T17:19:45.981Z,93.10
2018-07-06T17:22:14.795Z,92.00
2018-07-06T17:24:43.771Z,93.60
2018-07-06T17:27:13.605Z,93.90
2018-07-06T17:29:42.455Z,93.50
2018-07-06T17:34:40.047Z,93.20
2018-07-06T17:37:08.903Z,92.70
2018-07-06T17:42:06.756Z,94.70
2018-07-06T17:44:35.619Z,93.90
2018-07-06T17:47:05.246Z,93.50
2018-07-06T17:49:34.136Z,94.40
2018-07-06T17:52:03.016Z,95.20
2018-07-06T17:54:31.823Z,94.40
2018-07-06T17:57:01.755Z,94.80
2018-07-06T17:59:30.584Z,94.60
2018-07-06T18:01:59.488Z,94.30
2018-07-06T18:04:28.380Z,95.20
2018-07-06T18:06:57.239Z,95.70
2018-07-06T18:09:26.207Z,95.20
2018-07-06T18:11:56.067Z,93.40
2018-07-06T18:14:24.958Z,93.50
2018-07-06T18:16:53.935Z,94.00
2018-07-06T18:19:24.067Z,94.40
2018-07-06T18:21:53.058Z,94.20
2018-07-06T18:24:21.932Z,94.70
2018-07-06T18:26:50.855Z,94.70
2018-07-06T18:29:19.795Z,93.30
2018-07-06T18:34:17.472Z,93.80
2018-07-06T18:39:15.558Z,93.50
2018-07-06T18:41:44.408Z,93.60
2018-07-06T18:44:13.226Z,93.40
2018-07-06T18:46:42.172Z,93.30
2018-07-06T18:49:11.738Z,93.60
2018-07-06T18:51:41.312Z,93.30
2018-07-06T18:54:10.187Z,93.20
2018-07-06T18:56:39.270Z,93.20
2018-07-06T18:59:09.569Z,93.00
2018-07-06T19:01:38.614Z,93.20
2018-07-06T19:04:07.554Z,93.10
2018-07-06T19:11:35.542Z,93.40
2018-07-06T19:16:33.539Z,93.30
2018-07-06T19:19:02.400Z,93.10
2018-07-06T19:21:31.272Z,93.80
2018-07-06T19:24:00.703Z,93.20
2018-07-06T19:26:29.541Z,93.20
2018-07-06T19:28:59.490Z,93.00
2018-07-06T19:31:28.858Z,93.10
2018-07-06T19:33:57.720Z,93.40
2018-07-06T19:36:26.666Z,93.30
2018-07-06T19:38:56.571Z,93.00
2018-07-06T19:41:26.465Z,93.20
2018-07-06T19:43:55.375Z,93.30
2018-07-06T19:46:24.206Z,93.40
2018-07-06T19:48:53.082Z,93.80
2018-07-06T19:51:21.902Z,93.40
2018-07-06T19:56:20.104Z,93.60
2018-07-06T19:58:50.124Z,93.40
2018-07-06T20:01:19.507Z,93.10
2018-07-06T20:03:48.647Z,93.40
2018-07-06T20:06:17.691Z,93.50
2018-07-06T20:08:46.636Z,93.70
2018-07-06T20:11:15.482Z,93.60
2018-07-06T20:16:13.201Z,94.00
2018-07-06T20:18:42.692Z,93.30
2018-07-06T20:23:41.312Z,94.00
2018-07-06T20:26:10.151Z,93.90
2018-07-06T20:28:40.165Z,94.30
2018-07-06T20:31:09.008Z,94.10
2018-07-06T20:33:38.264Z,94.50
2018-07-06T20:36:07.420Z,94.70
2018-07-06T20:38:36.509Z,94.50
2018-07-06T20:41:06.388Z,94.50
2018-07-06T20:43:35.444Z,94.60
2018-07-06T20:46:04.423Z,94.40
2018-07-06T20:48:33.272Z,94.50
2018-07-06T20:51:02.201Z,94.70
2018-07-06T20:53:30.394Z,94.60
2018-07-06T20:58:28.065Z,94.20
2018-07-06T21:00:56.938Z,95.40
2018-07-06T21:03:26.152Z,94.30
2018-07-06T21:05:54.964Z,94.50
2018-07-06T21:08:23.899Z,95.10
2018-07-06T21:10:52.793Z,94.30
2018-07-06T21:13:21.675Z,95.20
2018-07-06T21:15:51.040Z,94.40
2018-07-06T21:18:19.847Z,94.70
2018-07-06T21:20:48.765Z,95.10
2018-07-06T21:23:17.839Z,95.50
2018-07-06T21:25:46.692Z,95.10
2018-07-06T21:28:15.615Z,95.40
2018-07-06T21:33:13.183Z,94.80
2018-07-06T21:35:42.039Z,95.20
2018-07-06T21:38:10.932Z,95.50
2018-07-06T21:40:39.791Z,95.30
2018-07-06T21:43:08.643Z,94.70
2018-07-06T21:45:37.510Z,95.10
2018-07-06T21:48:06.367Z,94.30
2018-07-06T21:50:35.270Z,93.40
2018-07-06T21:53:04.087Z,94.90
2018-07-06T22:00:37.589Z,96.40
2018-07-06T22:03:09.037Z,96.70
2018-07-06T22:05:39.223Z,97.10
2018-07-06T22:08:08.229Z,97.00
2018-07-06T22:10:37.531Z,97.80
2018-07-06T22:13:07.042Z,97.80
2018-07-06T22:15:41.963Z,97.70
2018-07-06T22:18:11.895Z,96.40
2018-07-06T22:20:41.283Z,97.10
2018-07-06T22:23:10.106Z,97.80
2018-07-06T22:25:38.960Z,96.80
2018-07-06T22:28:07.916Z,97.30
2018-07-06T22:33:05.818Z,98.10
2018-07-06T22:35:34.685Z,98.10
2018-07-06T22:38:03.547Z,98.30
2018-07-06T22:40:32.452Z,98.30
2018-07-06T22:43:01.280Z,97.80
2018-07-06T22:45:30.079Z,98.10
2018-07-06T22:47:58.960Z,96.60
2018-07-06T22:52:56.565Z,97.70
2018-07-06T22:55:25.503Z,98.00
2018-07-06T22:57:54.523Z,98.20
2018-07-06T23:00:23.379Z,98.50
2018-07-06T23:02:55.931Z,98.30
2018-07-06T23:05:24.768Z,98.30
2018-07-06T23:07:53.850Z,98.50
2018-07-06T23:12:51.511Z,97.10
2018-07-06T23:15:20.363Z,96.90
2018-07-06T23:17:49.327Z,97.20
2018-07-06T23:20:18.227Z,96.20
2018-07-06T23:23:03.858Z,95.90
2018-07-06T23:25:36.949Z,96.80
2018-07-06T23:28:05.921Z,95.90
2018-07-06T23:30:34.823Z,96.90
2018-07-06T23:33:04.629Z,97.20
2018-07-06T23:35:33.698Z,97.60
2018-07-06T23:38:02.627Z,97.20
2018-07-06T23:40:31.465Z,96.90
2018-07-06T23:43:00.516Z,95.60
2018-07-06T23:45:29.462Z,95.90
2018-07-06T23:47:58.312Z,95.20
2018-07-06T23:50:27.238Z,95.00
2018-07-06T23:52:56.104Z,95.00
2018-07-06T23:57:53.720Z,94.80
